sensor_id;sensor_type;location;lat;lon;timestamp;pressure;altitude;pressure_sealevel;temperature;humidity
61961;BME280;47923;42.506;24.192;2023-02-22T00:00:25;95386.91;;;8.77;39.91
61961;BME280;47923;42.506;24.192;2023-02-22T00:03:05;95386.38;;;8.72;40.37
61961;BME280;47923;42.506;24.192;2023-02-22T00:05:32;95309.63;;;8.18;40.06
61961;BME280;47923;42.506;24.192;2023-02-22T00:07:58;95297.19;;;8.14;40.98
61961;BME280;47923;42.506;24.192;2023-02-22T00:10:25;95384.09;;;8.58;40.54
61961;BME280;47923;42.506;24.192;2023-02-22T00:12:52;95353.09;;;8.20;41.00
61961;BME280;47923;42.506;24.192;2023-02-22T00:15:21;95388.94;;;8.37;41.47
61961;BME280;47923;42.506;24.192;2023-02-22T00:17:47;95241.88;;;7.41;41.74
61961;BME280;47923;42.506;24.192;2023-02-22T00:20:15;95377.72;;;8.35;41.92
61961;BME280;47923;42.506;24.192;2023-02-22T00:22:45;95391.03;;;8.43;41.08
61961;BME280;47923;42.506;24.192;2023-02-22T00:25:12;95348.31;;;8.14;41.17
61961;BME280;47923;42.506;24.192;2023-02-22T00:27:38;95377.72;;;8.35;41.17
61961;BME280;47923;42.506;24.192;2023-02-22T00:30:04;95383.69;;;8.28;41.35
61961;BME280;47923;42.506;24.192;2023-02-22T00:32:30;95375.19;;;8.26;41.62
61961;BME280;47923;42.506;24.192;2023-02-22T00:34:56;95309.13;;;7.85;41.40
61961;BME280;47923;42.506;24.192;2023-02-22T00:37:22;95143.50;;;6.80;41.50
61961;BME280;47923;42.506;24.192;2023-02-22T00:39:48;95366.94;;;8.35;41.31
61961;BME280;47923;42.506;24.192;2023-02-22T00:42:15;95369.06;;;8.41;40.85
61961;BME280;47923;42.506;24.192;2023-02-22T00:44:42;95274.44;;;7.80;41.12
61961;BME280;47923;42.506;24.192;2023-02-22T00:47:08;95372.09;;;8.40;41.34
61961;BME280;47923;42.506;24.192;2023-02-22T00:49:34;95346.75;;;8.13;41.56
61961;BME280;47923;42.506;24.192;2023-02-22T00:52:00;95366.88;;;8.31;41.11
61961;BME280;47923;42.506;24.192;2023-02-22T00:54:25;95345.97;;;8.12;40.92
61961;BME280;47923;42.506;24.192;2023-02-22T00:56:51;95370.44;;;8.35;41.14
61961;BME280;47923;42.506;24.192;2023-02-22T00:59:16;95395.09;;;8.37;41.11
61961;BME280;47923;42.506;24.192;2023-02-22T01:01:42;95291.59;;;7.75;41.06
61961;BME280;47923;42.506;24.192;2023-02-22T01:04:08;95334.66;;;7.91;41.14
61961;BME280;47923;42.506;24.192;2023-02-22T01:06:33;95318.19;;;7.64;41.86
61961;BME280;47923;42.506;24.192;2023-02-22T01:08:59;95374.75;;;7.96;41.87
61961;BME280;47923;42.506;24.192;2023-02-22T01:11:26;95380.38;;;7.91;42.69
61961;BME280;47923;42.506;24.192;2023-02-22T01:13:52;95314.22;;;7.46;42.55
61961;BME280;47923;42.506;24.192;2023-02-22T01:16:18;95383.81;;;7.75;43.44
61961;BME280;47923;42.506;24.192;2023-02-22T01:18:44;95135.50;;;5.91;43.34
61961;BME280;47923;42.506;24.192;2023-02-22T01:21:09;95380.63;;;7.58;44.05
61961;BME280;47923;42.506;24.192;2023-02-22T01:23:35;95295.78;;;6.80;44.15
61961;BME280;47923;42.506;24.192;2023-02-22T01:26:01;95379.53;;;7.34;44.66
61961;BME280;47923;42.506;24.192;2023-02-22T01:28:28;95387.59;;;7.34;44.65
61961;BME280;47923;42.506;24.192;2023-02-22T01:30:54;94989.63;;;4.82;44.43
61961;BME280;47923;42.506;24.192;2023-02-22T01:33:20;95296.22;;;6.82;44.50
61961;BME280;47923;42.506;24.192;2023-02-22T01:35:46;95057.97;;;5.37;44.16
61961;BME280;47923;42.506;24.192;2023-02-22T01:38:11;95330.84;;;7.36;43.52
61961;BME280;47923;42.506;24.192;2023-02-22T01:40:40;95345.47;;;7.51;43.38
61961;BME280;47923;42.506;24.192;2023-02-22T01:45:59;95337.81;;;7.53;43.24
61961;BME280;47923;42.506;24.192;2023-02-22T01:48:41;95372.69;;;7.77;43.19
61961;BME280;47923;42.506;24.192;2023-02-22T01:51:18;95331.03;;;7.43;43.21
61961;BME280;47923;42.506;24.192;2023-02-22T01:54:01;95339.75;;;7.52;43.41
61961;BME280;47923;42.506;24.192;2023-02-22T01:56:30;95359.97;;;7.62;43.32
61961;BME280;47923;42.506;24.192;2023-02-22T01:59:01;95374.88;;;7.71;43.00
61961;BME280;47923;42.506;24.192;2023-02-22T02:01:28;95367.25;;;7.61;43.12
61961;BME280;47923;42.506;24.192;2023-02-22T02:03:56;95375.66;;;7.60;43.40
61961;BME280;47923;42.506;24.192;2023-02-22T02:06:23;95002.16;;;5.15;43.54
61961;BME280;47923;42.506;24.192;2023-02-22T02:08:54;95376.38;;;7.44;43.43
61961;BME280;47923;42.506;24.192;2023-02-22T02:11:24;95387.34;;;7.39;43.71
61961;BME280;47923;42.506;24.192;2023-02-22T02:13:51;95375.28;;;7.33;43.81
61961;BME280;47923;42.506;24.192;2023-02-22T02:16:20;95250.28;;;6.34;44.49
61961;BME280;47923;42.506;24.192;2023-02-22T02:18:46;95368.81;;;7.10;44.39
61961;BME280;47923;42.506;24.192;2023-02-22T02:24:06;95369.06;;;6.92;44.44
61961;BME280;47923;42.506;24.192;2023-02-22T02:33:00;95384.59;;;6.87;44.52
61961;BME280;47923;42.506;24.192;2023-02-22T02:40:52;95390.06;;;6.66;44.96
61961;BME280;47923;42.506;24.192;2023-02-22T02:48:44;95308.84;;;6.20;44.16
61961;BME280;47923;42.506;24.192;2023-02-22T02:51:12;95389.63;;;6.88;44.05
61961;BME280;47923;42.506;24.192;2023-02-22T02:53:43;95324.19;;;6.56;43.72
61961;BME280;47923;42.506;24.192;2023-02-22T02:56:11;95412.25;;;7.12;43.49
61961;BME280;47923;42.506;24.192;2023-02-22T02:58:51;95391.22;;;7.14;43.94
61961;BME280;47923;42.506;24.192;2023-02-22T03:15:52;95363.13;;;6.62;44.63
61961;BME280;47923;42.506;24.192;2023-02-22T03:23:51;95401.38;;;6.72;44.99
61961;BME280;47923;42.506;24.192;2023-02-22T03:26:33;95277.16;;;5.89;45.46
61961;BME280;47923;42.506;24.192;2023-02-22T03:29:00;95420.19;;;6.72;45.36
61961;BME280;47923;42.506;24.192;2023-02-22T03:31:33;95139.38;;;4.99;45.36
61961;BME280;47923;42.506;24.192;2023-02-22T03:37:00;95361.31;;;6.42;46.44
61961;BME280;47923;42.506;24.192;2023-02-22T03:39:28;95295.50;;;5.99;46.52
61961;BME280;47923;42.506;24.192;2023-02-22T03:42:02;95347.41;;;6.28;47.04
61961;BME280;47923;42.506;24.192;2023-02-22T03:44:30;95347.66;;;6.35;46.83
61961;BME280;47923;42.506;24.192;2023-02-22T03:47:00;95295.84;;;5.98;47.35
61961;BME280;47923;42.506;24.192;2023-02-22T03:49:33;95381.66;;;6.43;46.98
61961;BME280;47923;42.506;24.192;2023-02-22T03:52:00;95415.34;;;6.65;47.85
61961;BME280;47923;42.506;24.192;2023-02-22T03:54:26;95408.44;;;6.64;47.26
61961;BME280;47923;42.506;24.192;2023-02-22T03:56:57;95166.34;;;5.07;48.05
61961;BME280;47923;42.506;24.192;2023-02-22T03:59:25;95337.13;;;6.30;47.54
61961;BME280;47923;42.506;24.192;2023-02-22T04:01:55;95407.56;;;6.84;47.81
61961;BME280;47923;42.506;24.192;2023-02-22T04:04:22;95406.88;;;6.87;47.37
61961;BME280;47923;42.506;24.192;2023-02-22T04:06:48;95375.97;;;6.57;47.05
61961;BME280;47923;42.506;24.192;2023-02-22T04:09:15;95225.91;;;5.58;47.04
61961;BME280;47923;42.506;24.192;2023-02-22T04:11:41;95412.78;;;6.56;47.83
61961;BME280;47923;42.506;24.192;2023-02-22T04:14:07;95139.59;;;4.74;48.12
61961;BME280;47923;42.506;24.192;2023-02-22T04:16:32;95406.06;;;6.50;48.26
61961;BME280;47923;42.506;24.192;2023-02-22T04:18:58;95365.53;;;6.31;47.71
61961;BME280;47923;42.506;24.192;2023-02-22T04:21:23;95438.16;;;6.59;48.07
61961;BME280;47923;42.506;24.192;2023-02-22T04:23:49;95405.72;;;6.52;47.25
61961;BME280;47923;42.506;24.192;2023-02-22T04:26:15;95412.09;;;6.47;48.19
61961;BME280;47923;42.506;24.192;2023-02-22T04:28:40;95411.31;;;6.47;47.70
61961;BME280;47923;42.506;24.192;2023-02-22T04:31:06;95426.28;;;6.48;48.19
61961;BME280;47923;42.506;24.192;2023-02-22T04:33:31;95334.69;;;5.92;48.25
61961;BME280;47923;42.506;24.192;2023-02-22T04:35:57;95381.38;;;6.12;47.83
61961;BME280;47923;42.506;24.192;2023-02-22T04:38:24;95376.00;;;6.12;48.51
61961;BME280;47923;42.506;24.192;2023-02-22T04:40:51;95284.84;;;5.58;49.06
61961;BME280;47923;42.506;24.192;2023-02-22T04:43:17;95409.31;;;6.23;48.63
61961;BME280;47923;42.506;24.192;2023-02-22T04:45:42;95410.66;;;6.17;49.21
61961;BME280;47923;42.506;24.192;2023-02-22T04:48:08;95413.88;;;6.10;48.66
61961;BME280;47923;42.506;24.192;2023-02-22T04:50:33;95257.47;;;4.98;49.57
61961;BME280;47923;42.506;24.192;2023-02-22T04:52:59;95411.06;;;5.86;50.46
61961;BME280;47923;42.506;24.192;2023-02-22T04:55:24;95262.19;;;4.80;50.36
61961;BME280;47923;42.506;24.192;2023-02-22T04:57:49;95407.94;;;5.63;50.82
61961;BME280;47923;42.506;24.192;2023-02-22T05:00:16;95327.88;;;4.98;51.92
61961;BME280;47923;42.506;24.192;2023-02-22T05:02:43;95391.00;;;5.29;51.51
61961;BME280;47923;42.506;24.192;2023-02-22T05:05:09;95340.16;;;4.99;51.28
61961;BME280;47923;42.506;24.192;2023-02-22T05:07:35;95424.41;;;5.52;51.82
61961;BME280;47923;42.506;24.192;2023-02-22T05:10:00;95420.19;;;5.51;51.58
61961;BME280;47923;42.506;24.192;2023-02-22T05:12:26;95416.91;;;5.46;51.43
61961;BME280;47923;42.506;24.192;2023-02-22T05:14:52;95416.97;;;5.37;51.28
61961;BME280;47923;42.506;24.192;2023-02-22T05:17:18;95418.09;;;5.27;51.94
61961;BME280;47923;42.506;24.192;2023-02-22T05:19:43;95252.00;;;4.14;52.89
61961;BME280;47923;42.506;24.192;2023-02-22T05:22:09;95352.75;;;4.69;52.84
61961;BME280;47923;42.506;24.192;2023-02-22T05:24:34;95377.09;;;4.85;53.61
61961;BME280;47923;42.506;24.192;2023-02-22T05:27:00;95316.53;;;4.42;54.59
61961;BME280;47923;42.506;24.192;2023-02-22T05:29:25;95431.09;;;5.17;52.97
61961;BME280;47923;42.506;24.192;2023-02-22T05:31:50;95366.28;;;4.73;52.96
61961;BME280;47923;42.506;24.192;2023-02-22T05:34:16;95432.50;;;5.23;54.66
61961;BME280;47923;42.506;24.192;2023-02-22T05:36:41;95388.81;;;5.02;54.07
61961;BME280;47923;42.506;24.192;2023-02-22T05:39:07;95342.47;;;4.80;53.54
61961;BME280;47923;42.506;24.192;2023-02-22T05:41:32;94737.06;;;1.04;53.01
61961;BME280;47923;42.506;24.192;2023-02-22T05:43:58;95424.81;;;5.63;52.32
61961;BME280;47923;42.506;24.192;2023-02-22T05:46:23;95237.25;;;4.38;52.72
61961;BME280;47923;42.506;24.192;2023-02-22T05:48:49;95368.91;;;5.32;51.91
61961;BME280;47923;42.506;24.192;2023-02-22T05:51:14;95444.63;;;5.92;51.11
61961;BME280;47923;42.506;24.192;2023-02-22T05:53:40;95396.88;;;5.64;51.87
61961;BME280;47923;42.506;24.192;2023-02-22T05:56:06;95445.22;;;5.97;51.05
61961;BME280;47923;42.506;24.192;2023-02-22T05:58:32;95380.81;;;5.64;50.87
61961;BME280;47923;42.506;24.192;2023-02-22T06:00:57;95345.59;;;5.53;50.46
61961;BME280;47923;42.506;24.192;2023-02-22T06:03:23;95417.22;;;6.07;49.73
61961;BME280;47923;42.506;24.192;2023-02-22T06:05:49;95424.41;;;6.15;50.90
61961;BME280;47923;42.506;24.192;2023-02-22T06:08:14;95347.66;;;5.69;50.29
61961;BME280;47923;42.506;24.192;2023-02-22T06:10:40;95359.53;;;5.80;50.27
61961;BME280;47923;42.506;24.192;2023-02-22T06:13:05;95226.19;;;5.11;49.24
61961;BME280;47923;42.506;24.192;2023-02-22T06:15:31;95145.28;;;4.72;49.91
61961;BME280;47923;42.506;24.192;2023-02-22T06:17:57;95328.66;;;6.40;47.87
61961;BME280;47923;42.506;24.192;2023-02-22T06:20:25;95455.78;;;9.57;44.50
61961;BME280;47923;42.506;24.192;2023-02-22T06:22:52;95328.66;;;12.80;35.38
61961;BME280;47923;42.506;24.192;2023-02-22T06:25:21;95447.84;;;16.73;29.74
61961;BME280;47923;42.506;24.192;2023-02-22T06:27:48;95267.53;;;17.05;26.72
61961;BME280;47923;42.506;24.192;2023-02-22T06:30:15;95458.28;;;19.49;25.47
61961;BME280;47923;42.506;24.192;2023-02-22T06:32:41;95422.28;;;20.77;23.75
61961;BME280;47923;42.506;24.192;2023-02-22T06:35:07;95423.38;;;21.97;22.16
61961;BME280;47923;42.506;24.192;2023-02-22T06:37:33;95443.16;;;23.21;20.95
61961;BME280;47923;42.506;24.192;2023-02-22T06:39:58;95459.75;;;24.29;19.57
61961;BME280;47923;42.506;24.192;2023-02-22T06:42:24;95414.78;;;24.63;19.19
61961;BME280;47923;42.506;24.192;2023-02-22T06:44:49;95452.38;;;24.25;18.95
61961;BME280;47923;42.506;24.192;2023-02-22T06:47:15;95397.63;;;24.68;18.29
61961;BME280;47923;42.506;24.192;2023-02-22T06:49:40;95409.94;;;25.38;18.21
61961;BME280;47923;42.506;24.192;2023-02-22T06:52:07;95439.03;;;26.56;17.33
61961;BME280;47923;42.506;24.192;2023-02-22T06:54:33;95441.78;;;26.01;17.39
61961;BME280;47923;42.506;24.192;2023-02-22T06:56:59;95410.88;;;26.67;16.84
61961;BME280;47923;42.506;24.192;2023-02-22T06:59:24;95363.94;;;26.63;15.95
61961;BME280;47923;42.506;24.192;2023-02-22T07:01:49;95263.94;;;26.34;16.21
61961;BME280;47923;42.506;24.192;2023-02-22T07:04:15;95437.28;;;28.04;14.90
61961;BME280;47923;42.506;24.192;2023-02-22T07:06:45;95436.91;;;27.63;15.29
61961;BME280;47923;42.506;24.192;2023-02-22T07:09:11;95417.09;;;27.13;15.44
61961;BME280;47923;42.506;24.192;2023-02-22T07:11:38;95441.75;;;27.11;15.51
61961;BME280;47923;42.506;24.192;2023-02-22T07:14:04;95434.97;;;26.94;15.64
61961;BME280;47923;42.506;24.192;2023-02-22T07:16:29;95442.47;;;27.21;15.54
61961;BME280;47923;42.506;24.192;2023-02-22T07:18:56;95381.06;;;26.95;15.36
61961;BME280;47923;42.506;24.192;2023-02-22T07:21:21;95429.88;;;27.86;14.80
61961;BME280;47923;42.506;24.192;2023-02-22T07:23:54;95354.22;;;27.19;15.18
61961;BME280;47923;42.506;24.192;2023-02-22T07:26:20;95433.22;;;27.57;15.35
61961;BME280;47923;42.506;24.192;2023-02-22T07:28:46;95435.06;;;27.69;14.62
61961;BME280;47923;42.506;24.192;2023-02-22T07:31:12;95357.47;;;27.18;15.22
61961;BME280;47923;42.506;24.192;2023-02-22T07:33:37;95433.16;;;28.23;14.66
61961;BME280;47923;42.506;24.192;2023-02-22T07:36:03;95378.31;;;27.70;14.85
61961;BME280;47923;42.506;24.192;2023-02-22T07:38:30;95429.03;;;28.43;14.74
61961;BME280;47923;42.506;24.192;2023-02-22T07:40:56;95405.41;;;27.99;14.80
61961;BME280;47923;42.506;24.192;2023-02-22T07:43:31;95368.75;;;28.10;14.76
61961;BME280;47923;42.506;24.192;2023-02-22T07:45:58;95246.53;;;27.42;14.69
61961;BME280;47923;42.506;24.192;2023-02-22T07:48:26;95396.00;;;29.18;14.18
61961;BME280;47923;42.506;24.192;2023-02-22T07:50:52;95406.91;;;28.78;14.21
61961;BME280;47923;42.506;24.192;2023-02-22T07:53:23;95334.53;;;28.28;14.46
61961;BME280;47923;42.506;24.192;2023-02-22T07:55:49;95420.38;;;29.09;14.15
61961;BME280;47923;42.506;24.192;2023-02-22T07:58:21;95420.72;;;28.72;14.17
61961;BME280;47923;42.506;24.192;2023-02-22T08:00:47;95418.63;;;28.82;14.51
61961;BME280;47923;42.506;24.192;2023-02-22T08:03:15;95335.41;;;28.34;14.08
61961;BME280;47923;42.506;24.192;2023-02-22T08:05:43;95409.69;;;28.78;14.50
61961;BME280;47923;42.506;24.192;2023-02-22T08:08:10;95418.09;;;28.54;14.31
61961;BME280;47923;42.506;24.192;2023-02-22T08:10:36;95415.66;;;29.00;14.14
61961;BME280;47923;42.506;24.192;2023-02-22T08:13:03;95412.38;;;29.31;13.88
61961;BME280;47923;42.506;24.192;2023-02-22T08:15:32;95411.00;;;29.41;13.74
61961;BME280;47923;42.506;24.192;2023-02-22T08:17:59;95408.72;;;28.51;14.56
61961;BME280;47923;42.506;24.192;2023-02-22T08:20:26;95349.78;;;28.77;14.37
61961;BME280;47923;42.506;24.192;2023-02-22T08:22:53;95401.69;;;30.15;13.19
61961;BME280;47923;42.506;24.192;2023-02-22T08:25:20;95408.84;;;29.66;13.55
61961;BME280;47923;42.506;24.192;2023-02-22T08:27:46;95386.19;;;28.49;14.19
61961;BME280;47923;42.506;24.192;2023-02-22T08:30:15;95406.84;;;28.87;13.95
61961;BME280;47923;42.506;24.192;2023-02-22T08:32:41;95414.66;;;28.44;14.43
61961;BME280;47923;42.506;24.192;2023-02-22T08:35:07;95382.84;;;28.60;14.20
61961;BME280;47923;42.506;24.192;2023-02-22T08:37:32;95402.03;;;28.87;13.96
61961;BME280;47923;42.506;24.192;2023-02-22T08:39:58;95401.34;;;28.78;14.47
61961;BME280;47923;42.506;24.192;2023-02-22T08:42:24;95390.41;;;28.45;14.49
61961;BME280;47923;42.506;24.192;2023-02-22T08:44:49;95378.25;;;29.31;14.05
61961;BME280;47923;42.506;24.192;2023-02-22T08:47:14;95351.50;;;28.89;14.01
61961;BME280;47923;42.506;24.192;2023-02-22T08:49:40;95302.34;;;28.80;14.08
61961;BME280;47923;42.506;24.192;2023-02-22T08:52:07;95403.47;;;29.12;14.42
61961;BME280;47923;42.506;24.192;2023-02-22T08:54:32;95417.75;;;29.35;14.03
61961;BME280;47923;42.506;24.192;2023-02-22T08:56:58;95396.09;;;29.59;13.89
61961;BME280;47923;42.506;24.192;2023-02-22T08:59:23;95397.19;;;30.03;13.47
61961;BME280;47923;42.506;24.192;2023-02-22T09:01:49;95366.84;;;28.84;13.89
61961;BME280;47923;42.506;24.192;2023-02-22T09:04:14;95238.66;;;27.64;14.39
61961;BME280;47923;42.506;24.192;2023-02-22T09:06:40;95398.50;;;28.57;14.52
61961;BME280;47923;42.506;24.192;2023-02-22T09:09:06;95391.75;;;28.64;14.31
61961;BME280;47923;42.506;24.192;2023-02-22T09:11:32;95393.69;;;29.17;13.74
61961;BME280;47923;42.506;24.192;2023-02-22T09:13:57;95357.97;;;28.95;13.78
61961;BME280;47923;42.506;24.192;2023-02-22T09:16:23;95392.50;;;29.38;13.65
61961;BME280;47923;42.506;24.192;2023-02-22T09:18:56;95366.34;;;29.15;13.68
61961;BME280;47923;42.506;24.192;2023-02-22T09:21:21;95413.34;;;28.69;14.38
61961;BME280;47923;42.506;24.192;2023-02-22T09:23:47;95407.81;;;28.30;14.26
61961;BME280;47923;42.506;24.192;2023-02-22T09:26:12;95312.53;;;27.86;14.51
61961;BME280;47923;42.506;24.192;2023-02-22T09:28:40;95398.53;;;28.33;14.67
61961;BME280;47923;42.506;24.192;2023-02-22T09:31:07;95366.75;;;27.39;14.94
61961;BME280;47923;42.506;24.192;2023-02-22T09:33:32;95392.09;;;27.56;14.74
61961;BME280;47923;42.506;24.192;2023-02-22T09:35:58;95358.25;;;27.66;14.81
61961;BME280;47923;42.506;24.192;2023-02-22T09:38:25;95312.09;;;27.54;14.50
61961;BME280;47923;42.506;24.192;2023-02-22T09:41:05;95389.69;;;27.96;14.86
61961;BME280;47923;42.506;24.192;2023-02-22T09:44:10;95300.09;;;27.24;14.99
61961;BME280;47923;42.506;24.192;2023-02-22T09:46:41;95382.13;;;28.21;14.95
61961;BME280;47923;42.506;24.192;2023-02-22T09:49:22;95385.94;;;28.23;14.99
61961;BME280;47923;42.506;24.192;2023-02-22T09:52:00;95374.25;;;28.58;14.69
61961;BME280;47923;42.506;24.192;2023-02-22T09:54:44;95351.81;;;28.76;14.07
61961;BME280;47923;42.506;24.192;2023-02-22T09:57:23;95366.56;;;28.53;14.49
61961;BME280;47923;42.506;24.192;2023-02-22T10:02:42;95375.53;;;28.33;14.78
61961;BME280;47923;42.506;24.192;2023-02-22T10:05:23;95367.72;;;28.07;14.90
61961;BME280;47923;42.506;24.192;2023-02-22T10:08:07;95366.94;;;28.60;14.82
61961;BME280;47923;42.506;24.192;2023-02-22T10:10:38;95357.47;;;28.97;14.20
61961;BME280;47923;42.506;24.192;2023-02-22T10:15:46;95348.34;;;28.37;14.61
61961;BME280;47923;42.506;24.192;2023-02-22T10:26:22;95346.34;;;30.54;12.67
61961;BME280;47923;42.506;24.192;2023-02-22T10:29:18;95342.44;;;29.38;13.73
61961;BME280;47923;42.506;24.192;2023-02-22T10:31:56;95263.38;;;28.30;13.92
61961;BME280;47923;42.506;24.192;2023-02-22T10:34:26;95326.31;;;28.78;14.24
61961;BME280;47923;42.506;24.192;2023-02-22T10:39:47;95315.19;;;28.33;14.82
61961;BME280;47923;42.506;24.192;2023-02-22T10:42:14;94818.53;;;25.16;14.22
61961;BME280;47923;42.506;24.192;2023-02-22T10:44:40;95314.50;;;28.24;14.32
61961;BME280;47923;42.506;24.192;2023-02-22T10:47:08;95285.38;;;29.49;15.23
61961;BME280;47923;42.506;24.192;2023-02-22T10:49:38;95291.81;;;29.75;13.31
61961;BME280;47923;42.506;24.192;2023-02-22T10:52:13;95297.66;;;29.77;13.27
61961;BME280;47923;42.506;24.192;2023-02-22T10:54:44;95295.72;;;28.78;13.69
61961;BME280;47923;42.506;24.192;2023-02-22T10:57:11;95290.44;;;28.06;14.22
61961;BME280;47923;42.506;24.192;2023-02-22T10:59:39;95220.28;;;27.67;13.96
61961;BME280;47923;42.506;24.192;2023-02-22T11:02:28;95287.97;;;28.67;13.73
61961;BME280;47923;42.506;24.192;2023-02-22T11:04:58;95283.66;;;30.12;12.82
61961;BME280;47923;42.506;24.192;2023-02-22T11:07:31;95267.75;;;30.44;12.37
61961;BME280;47923;42.506;24.192;2023-02-22T11:10:04;95219.16;;;29.73;12.68
61961;BME280;47923;42.506;24.192;2023-02-22T11:12:38;95245.69;;;29.94;13.67
61961;BME280;47923;42.506;24.192;2023-02-22T11:17:42;95276.41;;;30.52;12.85
61961;BME280;47923;42.506;24.192;2023-02-22T11:20:22;95262.94;;;29.72;12.82
61961;BME280;47923;42.506;24.192;2023-02-22T11:22:53;95260.03;;;29.06;13.44
61961;BME280;47923;42.506;24.192;2023-02-22T11:25:23;95268.31;;;29.56;13.21
61961;BME280;47923;42.506;24.192;2023-02-22T11:27:50;95173.44;;;27.84;13.47
61961;BME280;47923;42.506;24.192;2023-02-22T11:30:31;95271.09;;;28.26;13.78
61961;BME280;47923;42.506;24.192;2023-02-22T11:35:35;95264.78;;;28.11;13.89
61961;BME280;47923;42.506;24.192;2023-02-22T11:40:43;95256.84;;;28.48;13.87
61961;BME280;47923;42.506;24.192;2023-02-22T11:43:16;95256.56;;;28.46;14.20
61961;BME280;47923;42.506;24.192;2023-02-22T11:46:06;95245.06;;;28.53;13.31
61961;BME280;47923;42.506;24.192;2023-02-22T11:48:36;95226.63;;;27.67;13.90
61961;BME280;47923;42.506;24.192;2023-02-22T11:51:21;95252.16;;;26.99;15.05
61961;BME280;47923;42.506;24.192;2023-02-22T11:56:50;95216.53;;;25.89;16.56
61961;BME280;47923;42.506;24.192;2023-02-22T12:02:04;95228.47;;;25.04;16.49
61961;BME280;47923;42.506;24.192;2023-02-22T12:05:04;95232.25;;;24.79;17.20
61961;BME280;47923;42.506;24.192;2023-02-22T12:18:38;95206.69;;;22.69;19.03
61961;BME280;47923;42.506;24.192;2023-02-22T12:21:13;95225.31;;;22.39;19.47
61961;BME280;47923;42.506;24.192;2023-02-22T12:23:54;95216.72;;;22.12;20.15
61961;BME280;47923;42.506;24.192;2023-02-22T12:26:29;95225.41;;;22.10;20.92
61961;BME280;47923;42.506;24.192;2023-02-22T12:32:07;95218.47;;;21.64;21.03
61961;BME280;47923;42.506;24.192;2023-02-22T12:34:42;95224.69;;;21.51;21.16
61961;BME280;47923;42.506;24.192;2023-02-22T12:37:17;95204.66;;;21.51;20.57
61961;BME280;47923;42.506;24.192;2023-02-22T12:39:50;95214.34;;;21.27;20.54
61961;BME280;47923;42.506;24.192;2023-02-22T12:50:38;95144.97;;;20.64;21.26
61961;BME280;47923;42.506;24.192;2023-02-22T12:53:18;95132.16;;;20.41;21.09
61961;BME280;47923;42.506;24.192;2023-02-22T12:55:57;95200.34;;;20.76;21.86
61961;BME280;47923;42.506;24.192;2023-02-22T12:58:32;95191.00;;;20.73;21.77
61961;BME280;47923;42.506;24.192;2023-02-22T13:01:04;95173.25;;;20.45;22.21
61961;BME280;47923;42.506;24.192;2023-02-22T13:16:56;95181.53;;;19.33;22.36
61961;BME280;47923;42.506;24.192;2023-02-22T13:19:42;95170.00;;;19.22;22.40
61961;BME280;47923;42.506;24.192;2023-02-22T13:27:29;95111.59;;;18.89;23.44
61961;BME280;47923;42.506;24.192;2023-02-22T13:29:59;95180.66;;;19.36;23.42
61961;BME280;47923;42.506;24.192;2023-02-22T13:35:22;95181.28;;;19.24;23.27
61961;BME280;47923;42.506;24.192;2023-02-22T13:38:06;95183.03;;;19.14;23.59
61961;BME280;47923;42.506;24.192;2023-02-22T13:40:49;95172.19;;;19.11;23.62
61961;BME280;47923;42.506;24.192;2023-02-22T13:54:40;95176.88;;;18.67;23.45
61961;BME280;47923;42.506;24.192;2023-02-22T13:57:37;95170.63;;;18.63;23.99
61961;BME280;47923;42.506;24.192;2023-02-22T14:10:47;95186.81;;;18.30;24.74
61961;BME280;47923;42.506;24.192;2023-02-22T14:13:18;95141.13;;;18.04;24.65
61961;BME280;47923;42.506;24.192;2023-02-22T14:18:44;95120.13;;;17.70;25.22
61961;BME280;47923;42.506;24.192;2023-02-22T14:21:23;95172.38;;;18.03;25.00
61961;BME280;47923;42.506;24.192;2023-02-22T14:24:04;95171.25;;;18.00;25.53
61961;BME280;47923;42.506;24.192;2023-02-22T14:26:33;95172.41;;;17.99;25.51
61961;BME280;47923;42.506;24.192;2023-02-22T14:34:40;95168.44;;;17.77;25.21
61961;BME280;47923;42.506;24.192;2023-02-22T14:37:31;95112.78;;;17.33;25.52
61961;BME280;47923;42.506;24.192;2023-02-22T14:40:01;95162.75;;;17.64;25.88
61961;BME280;47923;42.506;24.192;2023-02-22T14:42:44;94986.53;;;16.34;25.63
61961;BME280;47923;42.506;24.192;2023-02-22T14:45:38;95169.09;;;17.54;25.84
61961;BME280;47923;42.506;24.192;2023-02-22T14:48:26;95171.91;;;17.47;26.07
61961;BME280;47923;42.506;24.192;2023-02-22T14:51:12;95098.53;;;16.88;26.87
61961;BME280;47923;42.506;24.192;2023-02-22T14:56:18;95104.56;;;16.68;26.88
61961;BME280;47923;42.506;24.192;2023-02-22T14:58:57;95178.97;;;17.10;26.85
61961;BME280;47923;42.506;24.192;2023-02-22T15:01:33;95172.81;;;17.02;27.20
61961;BME280;47923;42.506;24.192;2023-02-22T15:04:19;95186.59;;;16.92;27.13
61961;BME280;47923;42.506;24.192;2023-02-22T15:06:46;95174.59;;;16.82;27.46
61961;BME280;47923;42.506;24.192;2023-02-22T15:09:17;95178.19;;;16.72;27.97
61961;BME280;47923;42.506;24.192;2023-02-22T15:11:53;95181.38;;;16.63;27.90
61961;BME280;47923;42.506;24.192;2023-02-22T15:14:24;95176.44;;;16.47;28.34
61961;BME280;47923;42.506;24.192;2023-02-22T15:16:56;95188.94;;;16.41;28.08
61961;BME280;47923;42.506;24.192;2023-02-22T15:19:28;94917.53;;;14.54;28.54
61961;BME280;47923;42.506;24.192;2023-02-22T15:21:56;95178.63;;;16.15;28.99
61961;BME280;47923;42.506;24.192;2023-02-22T15:24:27;95016.00;;;14.93;29.11
61961;BME280;47923;42.506;24.192;2023-02-22T15:26:54;95145.50;;;15.61;29.46
61961;BME280;47923;42.506;24.192;2023-02-22T15:29:24;95179.69;;;15.72;29.85
61961;BME280;47923;42.506;24.192;2023-02-22T15:31:51;95180.91;;;15.57;30.17
61961;BME280;47923;42.506;24.192;2023-02-22T15:34:30;95183.69;;;15.39;30.27
61961;BME280;47923;42.506;24.192;2023-02-22T15:37:00;95183.38;;;15.23;30.31
61961;BME280;47923;42.506;24.192;2023-02-22T15:39:38;95154.38;;;14.84;30.98